LNI685 WIOO-WIII
Flight info
| Callsign | LNI685 |
|---|---|
| Flight time | 1h 12m |
| Altitude | 40000 |
| Route | MASRI W38 AMBOY |
| Aircraft | A339/H-SADE1E2E3GHIJ3J5M1P2RWXY/LB2D1 |
Departure
| Time | 2026-04-30 09:54 |
|---|---|
| Airport | Supadio International Airport (WIOO) |
Arrival
| Time | 2026-04-30 11:06 |
|---|---|
| Airport | Soekarno-Hatta International Airport (WIII) |
| Time | Latitude | Longitude | Altitude | Speed | Heading |
|---|---|---|---|---|---|
| 2026-04-30 09:25 | -0.14631 | 109.40339 | 29 ft | 0 kts | 68° |
| 2026-04-30 09:45 | -0.14633 | 109.40329 | 28 ft | 2 kts | 58° |
| 2026-04-30 09:45 | -0.14639 | 109.40316 | 28 ft | 2 kts | 21° |
| 2026-04-30 09:46 | -0.14650 | 109.40310 | 26 ft | 3 kts | 341° |
| 2026-04-30 09:46 | -0.14668 | 109.40317 | 27 ft | 2 kts | 336° |
| 2026-04-30 09:46 | -0.14674 | 109.40320 | 27 ft | 0 kts | 338° |
| 2026-04-30 09:49 | -0.14673 | 109.40319 | 27 ft | 1 kts | 338° |
| 2026-04-30 09:49 | -0.14629 | 109.40301 | 28 ft | 13 kts | 336° |
| 2026-04-30 09:50 | -0.14536 | 109.40262 | 29 ft | 15 kts | 338° |
| 2026-04-30 09:50 | -0.14442 | 109.40225 | 29 ft | 10 kts | 331° |
| 2026-04-30 09:50 | -0.14436 | 109.40161 | 28 ft | 10 kts | 257° |
| 2026-04-30 09:50 | -0.14399 | 109.40111 | 29 ft | 9 kts | 326° |
| 2026-04-30 09:51 | -0.14339 | 109.40086 | 29 ft | 10 kts | 338° |
| 2026-04-30 09:51 | -0.14275 | 109.40061 | 30 ft | 10 kts | 338° |
| 2026-04-30 09:51 | -0.14216 | 109.40022 | 30 ft | 11 kts | 314° |
| 2026-04-30 09:51 | -0.14164 | 109.39995 | 31 ft | 6 kts | 8° |
| 2026-04-30 09:52 | -0.14149 | 109.40015 | 31 ft | 3 kts | 58° |
| 2026-04-30 09:52 | -0.14150 | 109.40032 | 31 ft | 2 kts | 92° |
| 2026-04-30 09:52 | -0.14158 | 109.40045 | 31 ft | 3 kts | 122° |
| 2026-04-30 09:52 | -0.14177 | 109.40051 | 31 ft | 8 kts | 161° |
| 2026-04-30 09:53 | -0.14240 | 109.40049 | 30 ft | 9 kts | 163° |
| 2026-04-30 09:53 | -0.14339 | 109.40087 | 29 ft | 51 kts | 158° |
| 2026-04-30 09:53 | -0.14960 | 109.40339 | 30 ft | 138 kts | 158° |
| 2026-04-30 09:53 | -0.16036 | 109.40779 | 263 ft | 178 kts | 158° |
| 2026-04-30 09:54 | -0.17137 | 109.41128 | 1315 ft | 162 kts | 175° |
| 2026-04-30 09:54 | -0.18349 | 109.41114 | 1920 ft | 184 kts | 182° |
| 2026-04-30 09:54 | -0.19665 | 109.41089 | 2469 ft | 202 kts | 184° |
| 2026-04-30 09:54 | -0.21169 | 109.40962 | 2974 ft | 224 kts | 186° |
| 2026-04-30 09:55 | -0.22789 | 109.40791 | 3412 ft | 244 kts | 186° |
| 2026-04-30 09:55 | -0.24547 | 109.40616 | 3760 ft | 264 kts | 186° |
| 2026-04-30 09:55 | -0.26413 | 109.40450 | 4284 ft | 273 kts | 185° |
| 2026-04-30 09:55 | -0.28325 | 109.40294 | 4952 ft | 276 kts | 185° |
| 2026-04-30 09:56 | -0.30220 | 109.40143 | 5648 ft | 278 kts | 185° |
| 2026-04-30 09:56 | -0.32153 | 109.39989 | 6306 ft | 280 kts | 184° |
| 2026-04-30 09:56 | -0.34102 | 109.39831 | 6936 ft | 283 kts | 184° |
| 2026-04-30 09:56 | -0.36075 | 109.39669 | 7574 ft | 285 kts | 184° |
| 2026-04-30 09:57 | -0.38060 | 109.39506 | 8191 ft | 288 kts | 184° |
| 2026-04-30 09:57 | -0.40071 | 109.39341 | 8820 ft | 291 kts | 183° |
| 2026-04-30 09:57 | -0.42097 | 109.39175 | 9471 ft | 294 kts | 183° |
| 2026-04-30 09:57 | -0.44144 | 109.39007 | 10075 ft | 297 kts | 183° |
| 2026-04-30 09:58 | -0.46248 | 109.38835 | 10355 ft | 313 kts | 183° |
| 2026-04-30 09:58 | -0.48484 | 109.38654 | 10518 ft | 331 kts | 183° |
| 2026-04-30 09:58 | -0.50842 | 109.38460 | 10722 ft | 347 kts | 183° |
| 2026-04-30 09:58 | -0.53230 | 109.38262 | 11198 ft | 351 kts | 183° |
| 2026-04-30 09:59 | -0.58138 | 109.37853 | 12275 ft | 357 kts | 183° |
| 2026-04-30 09:59 | -0.63135 | 109.37438 | 13331 ft | 364 kts | 183° |
| 2026-04-30 10:00 | -0.68221 | 109.37018 | 14299 ft | 369 kts | 183° |
| 2026-04-30 10:00 | -0.70794 | 109.36805 | 14767 ft | 372 kts | 183° |
| 2026-04-30 10:01 | -0.75990 | 109.36374 | 15683 ft | 378 kts | 182° |
| 2026-04-30 10:01 | -0.78581 | 109.36160 | 16123 ft | 380 kts | 182° |
| 2026-04-30 10:01 | -0.81230 | 109.35940 | 16555 ft | 383 kts | 182° |
| 2026-04-30 10:02 | -0.86582 | 109.35497 | 17422 ft | 389 kts | 182° |
| 2026-04-30 10:02 | -0.89293 | 109.35272 | 17846 ft | 392 kts | 182° |
| 2026-04-30 10:02 | -0.92016 | 109.35046 | 18258 ft | 394 kts | 182° |
| 2026-04-30 10:02 | -0.94756 | 109.34775 | 18645 ft | 397 kts | 184° |
| 2026-04-30 10:03 | -0.97510 | 109.34463 | 19035 ft | 399 kts | 184° |
| 2026-04-30 10:03 | -1.00237 | 109.34150 | 19415 ft | 401 kts | 184° |
| 2026-04-30 10:03 | -1.03022 | 109.33835 | 19798 ft | 404 kts | 184° |
| 2026-04-30 10:03 | -1.05821 | 109.33525 | 20174 ft | 406 kts | 184° |
| 2026-04-30 10:04 | -1.08636 | 109.33217 | 20577 ft | 408 kts | 184° |
| 2026-04-30 10:04 | -1.11468 | 109.32909 | 20969 ft | 411 kts | 184° |
| 2026-04-30 10:04 | -1.14320 | 109.32599 | 21358 ft | 413 kts | 184° |
| 2026-04-30 10:04 | -1.17190 | 109.32288 | 21753 ft | 416 kts | 184° |
| 2026-04-30 10:05 | -1.20073 | 109.31975 | 22159 ft | 418 kts | 184° |
| 2026-04-30 10:05 | -1.22977 | 109.31659 | 22550 ft | 421 kts | 184° |
| 2026-04-30 10:05 | -1.25898 | 109.31341 | 22945 ft | 424 kts | 184° |
| 2026-04-30 10:05 | -1.28799 | 109.31026 | 23337 ft | 426 kts | 184° |
| 2026-04-30 10:06 | -1.31748 | 109.30659 | 23670 ft | 430 kts | 188° |
| 2026-04-30 10:06 | -1.34655 | 109.29917 | 24010 ft | 434 kts | 197° |
| 2026-04-30 10:06 | -1.37440 | 109.28754 | 24346 ft | 438 kts | 205° |
| 2026-04-30 10:06 | -1.40113 | 109.27246 | 24675 ft | 441 kts | 208° |
| 2026-04-30 10:07 | -1.42786 | 109.25724 | 25001 ft | 443 kts | 208° |
| 2026-04-30 10:07 | -1.45480 | 109.24218 | 25344 ft | 445 kts | 207° |
| 2026-04-30 10:07 | -1.48193 | 109.22713 | 25673 ft | 447 kts | 207° |
| 2026-04-30 10:07 | -1.50924 | 109.21201 | 25997 ft | 449 kts | 207° |
| 2026-04-30 10:08 | -1.53625 | 109.19704 | 26325 ft | 452 kts | 207° |
| 2026-04-30 10:08 | -1.56381 | 109.18176 | 26648 ft | 454 kts | 207° |
| 2026-04-30 10:08 | -1.59142 | 109.16643 | 26967 ft | 456 kts | 207° |
| 2026-04-30 10:08 | -1.61921 | 109.15100 | 27285 ft | 458 kts | 207° |
| 2026-04-30 10:09 | -1.64711 | 109.13550 | 27611 ft | 460 kts | 207° |
| 2026-04-30 10:09 | -1.67514 | 109.11992 | 27939 ft | 462 kts | 207° |
| 2026-04-30 10:09 | -1.70330 | 109.10426 | 28231 ft | 464 kts | 207° |
| 2026-04-30 10:09 | -1.73161 | 109.08853 | 28540 ft | 466 kts | 207° |
| 2026-04-30 10:10 | -1.75997 | 109.07275 | 28843 ft | 468 kts | 207° |
| 2026-04-30 10:10 | -1.78853 | 109.05687 | 29036 ft | 470 kts | 207° |
| 2026-04-30 10:10 | -1.81706 | 109.04100 | 29476 ft | 468 kts | 207° |
| 2026-04-30 10:10 | -1.84528 | 109.02529 | 30141 ft | 461 kts | 207° |
| 2026-04-30 10:11 | -1.87301 | 109.00985 | 30814 ft | 452 kts | 207° |
| 2026-04-30 10:11 | -1.89987 | 108.99488 | 31486 ft | 444 kts | 207° |
| 2026-04-30 10:11 | -1.92655 | 108.98003 | 32198 ft | 435 kts | 207° |
| 2026-04-30 10:11 | -1.95274 | 108.96544 | 32913 ft | 425 kts | 207° |
| 2026-04-30 10:12 | -1.97827 | 108.95123 | 33652 ft | 416 kts | 206° |
| 2026-04-30 10:12 | -2.00333 | 108.93727 | 34234 ft | 408 kts | 206° |
| 2026-04-30 10:12 | -2.02791 | 108.92360 | 34789 ft | 400 kts | 206° |
| 2026-04-30 10:12 | -2.05194 | 108.91024 | 35352 ft | 391 kts | 206° |
| 2026-04-30 10:13 | -2.07522 | 108.89729 | 35703 ft | 389 kts | 206° |
| 2026-04-30 10:13 | -2.12335 | 108.87055 | 35809 ft | 402 kts | 207° |
| 2026-04-30 10:14 | -2.17310 | 108.84288 | 35929 ft | 416 kts | 207° |
| 2026-04-30 10:14 | -2.25078 | 108.79965 | 36113 ft | 436 kts | 207° |
| 2026-04-30 10:15 | -2.30460 | 108.76970 | 36225 ft | 449 kts | 207° |
| 2026-04-30 10:15 | -2.35965 | 108.73904 | 36354 ft | 462 kts | 207° |
| 2026-04-30 10:16 | -2.41654 | 108.70736 | 36583 ft | 472 kts | 207° |
| 2026-04-30 10:16 | -2.44524 | 108.69138 | 36828 ft | 473 kts | 207° |
| 2026-04-30 10:17 | -2.50464 | 108.66311 | 37332 ft | 472 kts | 199° |
| 2026-04-30 10:17 | -2.56728 | 108.64363 | 37846 ft | 472 kts | 195° |
| 2026-04-30 10:17 | -2.59871 | 108.63420 | 38112 ft | 471 kts | 195° |
| 2026-04-30 10:18 | -2.63004 | 108.62466 | 38367 ft | 471 kts | 195° |
| 2026-04-30 10:18 | -2.66136 | 108.61509 | 38626 ft | 471 kts | 195° |
| 2026-04-30 10:18 | -2.69230 | 108.60564 | 38851 ft | 470 kts | 195° |
| 2026-04-30 10:19 | -2.75479 | 108.58658 | 39308 ft | 469 kts | 195° |
| 2026-04-30 10:19 | -2.78596 | 108.57709 | 39536 ft | 468 kts | 195° |
| 2026-04-30 10:19 | -2.81706 | 108.56762 | 39765 ft | 467 kts | 195° |
| 2026-04-30 10:20 | -2.87970 | 108.54856 | 39922 ft | 473 kts | 195° |
| 2026-04-30 10:20 | -2.97432 | 108.51978 | 39890 ft | 472 kts | 195° |
| 2026-04-30 10:21 | -3.03695 | 108.50072 | 39886 ft | 476 kts | 195° |
| 2026-04-30 10:21 | -3.10034 | 108.48142 | 39877 ft | 476 kts | 195° |
| 2026-04-30 10:22 | -3.16371 | 108.46212 | 39879 ft | 476 kts | 195° |
| 2026-04-30 10:22 | -3.22705 | 108.44284 | 39881 ft | 476 kts | 195° |
| 2026-04-30 10:23 | -3.29034 | 108.42357 | 39886 ft | 476 kts | 195° |
| 2026-04-30 10:23 | -3.35326 | 108.40441 | 39885 ft | 476 kts | 195° |
| 2026-04-30 10:24 | -3.41652 | 108.38515 | 39879 ft | 475 kts | 195° |
| 2026-04-30 10:24 | -3.47980 | 108.36587 | 39871 ft | 475 kts | 195° |
| 2026-04-30 10:25 | -3.54312 | 108.34658 | 39871 ft | 475 kts | 195° |
| 2026-04-30 10:25 | -3.60632 | 108.32733 | 39892 ft | 475 kts | 195° |
| 2026-04-30 10:26 | -3.66912 | 108.30820 | 39887 ft | 475 kts | 195° |
| 2026-04-30 10:26 | -3.73227 | 108.28895 | 39869 ft | 475 kts | 195° |
| 2026-04-30 10:27 | -3.79544 | 108.26970 | 39869 ft | 474 kts | 195° |
| 2026-04-30 10:27 | -3.85856 | 108.25046 | 39890 ft | 474 kts | 195° |
| 2026-04-30 10:28 | -3.92169 | 108.23121 | 39891 ft | 474 kts | 195° |
| 2026-04-30 10:28 | -3.98434 | 108.21211 | 39869 ft | 474 kts | 195° |
| 2026-04-30 10:29 | -4.04738 | 108.19289 | 39869 ft | 474 kts | 195° |
| 2026-04-30 10:29 | -4.11034 | 108.17351 | 39880 ft | 473 kts | 197° |
| 2026-04-30 10:30 | -4.17088 | 108.14728 | 39875 ft | 476 kts | 207° |
| 2026-04-30 10:30 | -4.22888 | 108.11629 | 39873 ft | 476 kts | 206° |
| 2026-04-30 10:31 | -4.28756 | 108.08548 | 39875 ft | 476 kts | 206° |
| 2026-04-30 10:31 | -4.34629 | 108.05465 | 39873 ft | 477 kts | 206° |
| 2026-04-30 10:32 | -4.40507 | 108.02375 | 39877 ft | 477 kts | 206° |
| 2026-04-30 10:32 | -4.46395 | 107.99279 | 39877 ft | 478 kts | 206° |
| 2026-04-30 10:33 | -4.52243 | 107.96203 | 39880 ft | 478 kts | 206° |
| 2026-04-30 10:33 | -4.58141 | 107.93100 | 39899 ft | 478 kts | 206° |
| 2026-04-30 10:34 | -4.64035 | 107.89998 | 39887 ft | 479 kts | 206° |
| 2026-04-30 10:34 | -4.69929 | 107.86895 | 39866 ft | 479 kts | 206° |
| 2026-04-30 10:35 | -4.75828 | 107.83788 | 39873 ft | 478 kts | 206° |
| 2026-04-30 10:35 | -4.81680 | 107.80707 | 39897 ft | 478 kts | 206° |
| 2026-04-30 10:36 | -4.87565 | 107.77607 | 39892 ft | 478 kts | 206° |
| 2026-04-30 10:36 | -4.93457 | 107.74503 | 39868 ft | 478 kts | 206° |
| 2026-04-30 10:37 | -4.99344 | 107.71401 | 39872 ft | 478 kts | 206° |
| 2026-04-30 10:37 | -5.05186 | 107.68321 | 39895 ft | 477 kts | 206° |
| 2026-04-30 10:38 | -5.11061 | 107.65224 | 39899 ft | 477 kts | 206° |
| 2026-04-30 10:38 | -5.13988 | 107.63680 | 39774 ft | 473 kts | 206° |
| 2026-04-30 10:38 | -5.16827 | 107.62031 | 39279 ft | 472 kts | 214° |
| 2026-04-30 10:39 | -5.19347 | 107.59913 | 38369 ft | 475 kts | 225° |
| 2026-04-30 10:39 | -5.21433 | 107.57322 | 37277 ft | 480 kts | 236° |
| 2026-04-30 10:39 | -5.22993 | 107.54351 | 36171 ft | 483 kts | 248° |
| 2026-04-30 10:39 | -5.24066 | 107.51149 | 35049 ft | 486 kts | 253° |
| 2026-04-30 10:40 | -5.25040 | 107.47892 | 33909 ft | 489 kts | 252° |
| 2026-04-30 10:40 | -5.26105 | 107.44642 | 32620 ft | 491 kts | 250° |
| 2026-04-30 10:40 | -5.27271 | 107.41417 | 31337 ft | 492 kts | 249° |
| 2026-04-30 10:40 | -5.28500 | 107.38215 | 30232 ft | 491 kts | 248° |
| 2026-04-30 10:41 | -5.29732 | 107.35084 | 29266 ft | 485 kts | 248° |
| 2026-04-30 10:41 | -5.30967 | 107.31966 | 28314 ft | 478 kts | 248° |
| 2026-04-30 10:41 | -5.32196 | 107.28861 | 27507 ft | 478 kts | 248° |
| 2026-04-30 10:41 | -5.33412 | 107.25783 | 27090 ft | 469 kts | 248° |
| 2026-04-30 10:42 | -5.34592 | 107.22789 | 26929 ft | 453 kts | 248° |
| 2026-04-30 10:42 | -5.35733 | 107.19888 | 26554 ft | 444 kts | 248° |
| 2026-04-30 10:42 | -5.36858 | 107.17015 | 25994 ft | 441 kts | 248° |
| 2026-04-30 10:42 | -5.37973 | 107.14159 | 25426 ft | 438 kts | 248° |
| 2026-04-30 10:43 | -5.39077 | 107.11331 | 24882 ft | 434 kts | 248° |
| 2026-04-30 10:43 | -5.40173 | 107.08522 | 24341 ft | 431 kts | 248° |
| 2026-04-30 10:43 | -5.41247 | 107.05769 | 23826 ft | 427 kts | 248° |
| 2026-04-30 10:43 | -5.42318 | 107.03024 | 23496 ft | 418 kts | 248° |
| 2026-04-30 10:44 | -5.43373 | 107.00322 | 23151 ft | 414 kts | 248° |
| 2026-04-30 10:44 | -5.44426 | 106.97626 | 22801 ft | 415 kts | 248° |
| 2026-04-30 10:44 | -5.45467 | 106.94958 | 22687 ft | 405 kts | 248° |
| 2026-04-30 10:44 | -5.46551 | 106.92388 | 22371 ft | 396 kts | 240° |
| 2026-04-30 10:45 | -5.48157 | 106.90206 | 22051 ft | 385 kts | 223° |
| 2026-04-30 10:45 | -5.50297 | 106.88625 | 21736 ft | 383 kts | 205° |
| 2026-04-30 10:45 | -5.52771 | 106.87638 | 21425 ft | 383 kts | 196° |
| 2026-04-30 10:45 | -5.55315 | 106.86844 | 20928 ft | 384 kts | 195° |
| 2026-04-30 10:46 | -5.57860 | 106.86028 | 20410 ft | 382 kts | 197° |
| 2026-04-30 10:46 | -5.60360 | 106.85154 | 19837 ft | 380 kts | 198° |
| 2026-04-30 10:46 | -5.62793 | 106.84247 | 19310 ft | 378 kts | 199° |
| 2026-04-30 10:46 | -5.65235 | 106.83307 | 18728 ft | 372 kts | 200° |
| 2026-04-30 10:47 | -5.67637 | 106.82373 | 17923 ft | 371 kts | 200° |
| 2026-04-30 10:47 | -5.70047 | 106.81435 | 17353 ft | 368 kts | 200° |
| 2026-04-30 10:47 | -5.72421 | 106.80512 | 16804 ft | 364 kts | 200° |
| 2026-04-30 10:47 | -5.74772 | 106.79601 | 16247 ft | 361 kts | 200° |
| 2026-04-30 10:48 | -5.77109 | 106.78697 | 15688 ft | 358 kts | 200° |
| 2026-04-30 10:48 | -5.79425 | 106.77802 | 15129 ft | 355 kts | 200° |
| 2026-04-30 10:48 | -5.81724 | 106.76914 | 14603 ft | 352 kts | 200° |
| 2026-04-30 10:48 | -5.83989 | 106.76038 | 13957 ft | 347 kts | 200° |
| 2026-04-30 10:49 | -5.86072 | 106.74897 | 13421 ft | 339 kts | 218° |
| 2026-04-30 10:49 | -5.87616 | 106.73161 | 12749 ft | 341 kts | 239° |
| 2026-04-30 10:49 | -5.88558 | 106.70998 | 12282 ft | 333 kts | 251° |
| 2026-04-30 10:49 | -5.89302 | 106.68796 | 11904 ft | 334 kts | 252° |
| 2026-04-30 10:50 | -5.90064 | 106.66596 | 11514 ft | 334 kts | 251° |
| 2026-04-30 10:50 | -5.90882 | 106.64402 | 11124 ft | 334 kts | 249° |
| 2026-04-30 10:50 | -5.91723 | 106.62259 | 10756 ft | 326 kts | 249° |
| 2026-04-30 10:50 | -5.92551 | 106.60202 | 10609 ft | 310 kts | 248° |
| 2026-04-30 10:51 | -5.93350 | 106.58230 | 10277 ft | 300 kts | 248° |
| 2026-04-30 10:51 | -5.94127 | 106.56321 | 9948 ft | 295 kts | 248° |
| 2026-04-30 10:51 | -5.94915 | 106.54404 | 9466 ft | 295 kts | 248° |
| 2026-04-30 10:51 | -5.95678 | 106.52552 | 9241 ft | 291 kts | 248° |
| 2026-04-30 10:52 | -5.96466 | 106.50632 | 8997 ft | 294 kts | 248° |
| 2026-04-30 10:52 | -5.97229 | 106.48767 | 8760 ft | 291 kts | 248° |
| 2026-04-30 10:52 | -5.97995 | 106.46891 | 8506 ft | 290 kts | 248° |
| 2026-04-30 10:52 | -5.98757 | 106.45020 | 8263 ft | 290 kts | 248° |
| 2026-04-30 10:53 | -5.99518 | 106.43156 | 8021 ft | 288 kts | 248° |
| 2026-04-30 10:53 | -6.00276 | 106.41297 | 7773 ft | 287 kts | 248° |
| 2026-04-30 10:53 | -6.01030 | 106.39445 | 7523 ft | 286 kts | 248° |
| 2026-04-30 10:53 | -6.01780 | 106.37604 | 7293 ft | 285 kts | 248° |
| 2026-04-30 10:54 | -6.02531 | 106.35761 | 7083 ft | 283 kts | 248° |
| 2026-04-30 10:54 | -6.03267 | 106.33956 | 7014 ft | 271 kts | 248° |
| 2026-04-30 10:54 | -6.04156 | 106.32396 | 7020 ft | 247 kts | 226° |
| 2026-04-30 10:54 | -6.05525 | 106.31447 | 7031 ft | 243 kts | 198° |
| 2026-04-30 10:55 | -6.07150 | 106.31248 | 7009 ft | 231 kts | 169° |
| 2026-04-30 10:55 | -6.08654 | 106.31628 | 6926 ft | 216 kts | 157° |
| 2026-04-30 10:55 | -6.10026 | 106.32107 | 6825 ft | 206 kts | 157° |
| 2026-04-30 10:55 | -6.11363 | 106.32517 | 6758 ft | 192 kts | 161° |
| 2026-04-30 10:56 | -6.12624 | 106.32818 | 6660 ft | 181 kts | 164° |
| 2026-04-30 10:56 | -6.13845 | 106.33053 | 6439 ft | 179 kts | 165° |
| 2026-04-30 10:56 | -6.15071 | 106.33267 | 6161 ft | 178 kts | 166° |
| 2026-04-30 10:56 | -6.16290 | 106.33473 | 5901 ft | 177 kts | 167° |
| 2026-04-30 10:57 | -6.17490 | 106.33672 | 5632 ft | 177 kts | 166° |
| 2026-04-30 10:57 | -6.18699 | 106.33878 | 5390 ft | 175 kts | 166° |
| 2026-04-30 10:57 | -6.19888 | 106.34104 | 5119 ft | 173 kts | 161° |
| 2026-04-30 10:57 | -6.20907 | 106.34693 | 4793 ft | 168 kts | 130° |
| 2026-04-30 10:58 | -6.21513 | 106.35664 | 4528 ft | 164 kts | 113° |
| 2026-04-30 10:58 | -6.22037 | 106.36679 | 4257 ft | 163 kts | 115° |
| 2026-04-30 10:58 | -6.22600 | 106.37664 | 4046 ft | 160 kts | 118° |
| 2026-04-30 10:58 | -6.23186 | 106.38606 | 4007 ft | 155 kts | 120° |
| 2026-04-30 10:59 | -6.23617 | 106.39554 | 3947 ft | 151 kts | 101° |
| 2026-04-30 10:59 | -6.23606 | 106.40593 | 3871 ft | 149 kts | 77° |
| 2026-04-30 10:59 | -6.23294 | 106.41573 | 3816 ft | 150 kts | 68° |
| 2026-04-30 10:59 | -6.22892 | 106.42552 | 3758 ft | 149 kts | 68° |
| 2026-04-30 11:00 | -6.22515 | 106.43508 | 3693 ft | 149 kts | 69° |
| 2026-04-30 11:00 | -6.22134 | 106.44488 | 3629 ft | 149 kts | 68° |
| 2026-04-30 11:00 | -6.21754 | 106.45442 | 3571 ft | 150 kts | 69° |
| 2026-04-30 11:00 | -6.21368 | 106.46421 | 3497 ft | 147 kts | 69° |
| 2026-04-30 11:01 | -6.20988 | 106.47386 | 3364 ft | 151 kts | 69° |
| 2026-04-30 11:01 | -6.20609 | 106.48342 | 3211 ft | 147 kts | 69° |
| 2026-04-30 11:01 | -6.20229 | 106.49303 | 3038 ft | 147 kts | 69° |
| 2026-04-30 11:01 | -6.19850 | 106.50264 | 2866 ft | 148 kts | 69° |
| 2026-04-30 11:02 | -6.19469 | 106.51221 | 2691 ft | 147 kts | 69° |
| 2026-04-30 11:02 | -6.19090 | 106.52178 | 2511 ft | 146 kts | 69° |
| 2026-04-30 11:02 | -6.18714 | 106.53125 | 2322 ft | 145 kts | 69° |
| 2026-04-30 11:02 | -6.18335 | 106.54083 | 2150 ft | 149 kts | 69° |
| 2026-04-30 11:03 | -6.17960 | 106.55027 | 1963 ft | 146 kts | 69° |
| 2026-04-30 11:03 | -6.17581 | 106.55989 | 1772 ft | 146 kts | 69° |
| 2026-04-30 11:03 | -6.17205 | 106.56933 | 1605 ft | 148 kts | 68° |
| 2026-04-30 11:04 | -6.16450 | 106.58834 | 1217 ft | 143 kts | 68° |
| 2026-04-30 11:04 | -6.16086 | 106.59762 | 1037 ft | 141 kts | 68° |
| 2026-04-30 11:04 | -6.15711 | 106.60701 | 828 ft | 149 kts | 68° |
| 2026-04-30 11:04 | -6.15435 | 106.61403 | 695 ft | 150 kts | 68° |
| 2026-04-30 11:05 | -6.15056 | 106.62356 | 490 ft | 148 kts | 66° |
| 2026-04-30 11:05 | -6.14674 | 106.63329 | 320 ft | 150 kts | 67° |
| 2026-04-30 11:05 | -6.14283 | 106.64290 | 109 ft | 150 kts | 67° |
| 2026-04-30 11:05 | -6.13906 | 106.65232 | 47 ft | 134 kts | 68° |
| 2026-04-30 11:06 | -6.13640 | 106.65904 | 45 ft | 74 kts | 68° |
| 2026-04-30 11:06 | -6.13519 | 106.66183 | 46 ft | 22 kts | 49° |
| 2026-04-30 11:06 | -6.13414 | 106.66271 | 46 ft | 18 kts | 38° |
| 2026-04-30 11:06 | -6.13376 | 106.66301 | 46 ft | 1 kts | 33° |
| 2026-04-30 11:07 | -6.13358 | 106.66304 | 46 ft | 4 kts | 10° |
| 2026-04-30 11:07 | -6.13323 | 106.66297 | 45 ft | 6 kts | 334° |
| 2026-04-30 11:07 | -6.13313 | 106.66255 | 45 ft | 7 kts | 269° |
| 2026-04-30 11:07 | -6.13328 | 106.66201 | 45 ft | 9 kts | 248° |
| 2026-04-30 11:08 | -6.13354 | 106.66135 | 45 ft | 11 kts | 249° |
| 2026-04-30 11:08 | -6.13385 | 106.66057 | 44 ft | 13 kts | 248° |
| 2026-04-30 11:08 | -6.13422 | 106.65967 | 44 ft | 15 kts | 248° |
| 2026-04-30 11:08 | -6.13433 | 106.65878 | 44 ft | 13 kts | 292° |
| 2026-04-30 11:09 | -6.13356 | 106.65839 | 44 ft | 13 kts | 336° |
| 2026-04-30 11:09 | -6.13332 | 106.65776 | 44 ft | 10 kts | 253° |
| 2026-04-30 11:09 | -6.13328 | 106.65732 | 44 ft | 2 kts | 302° |
| 2026-04-30 11:09 | -6.13309 | 106.65724 | 44 ft | 4 kts | 339° |
| 2026-04-30 11:10 | -6.13303 | 106.65722 | 44 ft | 0 kts | 339° |
| 2026-04-30 11:10 | -6.13330 | 106.65822 | 42 ft | 6 kts | 324° |
| 2026-04-30 11:10 | -6.14848 | 106.62883 | 417 ft | 151 kts | 67° |
| 2026-04-30 11:11 | -6.14463 | 106.63853 | 188 ft | 148 kts | 66° |
| 2026-04-30 11:11 | -6.14071 | 106.64822 | 47 ft | 149 kts | 68° |
| 2026-04-30 11:11 | -6.13738 | 106.65655 | 45 ft | 100 kts | 68° |
| 2026-04-30 11:11 | -6.13555 | 106.66119 | 46 ft | 37 kts | 72° |
| 2026-04-30 11:12 | -6.14644 | 106.63405 | 310 ft | 149 kts | 67° |
| 2026-04-30 11:12 | -6.14253 | 106.64364 | 102 ft | 150 kts | 67° |